N155KF KMLB-KHXD
Flight info
| Callsign | N155KF |
|---|---|
| Flight time | 1h 35m |
| Altitude | 8000 |
| Route | MLB V3 LLIPS V1 TYBEE |
| Aircraft | C208/L-SDFGR/C |
Departure
| Time | 2026-04-26 12:43 |
|---|---|
| Airport | Melbourne Orlando International Airport (KMLB) |
Arrival
| Time | 2026-04-26 14:18 |
|---|---|
| Airport | Hilton Head Airport (KHXD) |
| Time | Latitude | Longitude | Altitude | Speed | Heading |
|---|---|---|---|---|---|
| 2026-04-26 12:28 | 28.10566 | -80.62973 | 31 ft | 0 kts | 163° |
| 2026-04-26 12:40 | 28.10550 | -80.62974 | 31 ft | 4 kts | 209° |
| 2026-04-26 12:40 | 28.10524 | -80.63005 | 31 ft | 6 kts | 227° |
| 2026-04-26 12:40 | 28.10500 | -80.63037 | 30 ft | 4 kts | 230° |
| 2026-04-26 12:40 | 28.10469 | -80.63055 | 31 ft | 8 kts | 157° |
| 2026-04-26 12:41 | 28.10426 | -80.63001 | 30 ft | 7 kts | 133° |
| 2026-04-26 12:41 | 28.10392 | -80.62983 | 30 ft | 5 kts | 171° |
| 2026-04-26 12:41 | 28.10341 | -80.62980 | 30 ft | 7 kts | 178° |
| 2026-04-26 12:41 | 28.10299 | -80.62978 | 30 ft | 4 kts | 182° |
| 2026-04-26 12:42 | 28.10281 | -80.63001 | 30 ft | 9 kts | 259° |
| 2026-04-26 12:42 | 28.10273 | -80.63144 | 30 ft | 37 kts | 267° |
| 2026-04-26 12:42 | 28.10254 | -80.63649 | 94 ft | 81 kts | 261° |
| 2026-04-26 12:42 | 28.10180 | -80.64338 | 339 ft | 93 kts | 258° |
| 2026-04-26 12:43 | 28.10117 | -80.65115 | 590 ft | 108 kts | 262° |
| 2026-04-26 12:43 | 28.10058 | -80.66013 | 865 ft | 119 kts | 264° |
| 2026-04-26 12:43 | 28.09981 | -80.66974 | 1153 ft | 125 kts | 262° |
| 2026-04-26 12:43 | 28.09917 | -80.67958 | 1499 ft | 126 kts | 270° |
| 2026-04-26 12:44 | 28.10414 | -80.68786 | 1829 ft | 141 kts | 329° |
| 2026-04-26 12:44 | 28.11408 | -80.68984 | 2178 ft | 148 kts | 349° |
| 2026-04-26 12:44 | 28.12415 | -80.69119 | 2573 ft | 143 kts | 347° |
| 2026-04-26 12:44 | 28.13383 | -80.69264 | 2983 ft | 140 kts | 347° |
| 2026-04-26 12:45 | 28.14324 | -80.69425 | 3392 ft | 134 kts | 341° |
| 2026-04-26 12:45 | 28.15209 | -80.69687 | 3773 ft | 131 kts | 340° |
| 2026-04-26 12:45 | 28.16091 | -80.69913 | 4133 ft | 130 kts | 342° |
| 2026-04-26 12:45 | 28.16978 | -80.70139 | 4497 ft | 131 kts | 341° |
| 2026-04-26 12:46 | 28.17862 | -80.70352 | 4867 ft | 129 kts | 341° |
| 2026-04-26 12:46 | 28.18736 | -80.70569 | 5184 ft | 128 kts | 342° |
| 2026-04-26 12:46 | 28.19616 | -80.70773 | 5551 ft | 129 kts | 342° |
| 2026-04-26 12:46 | 28.20491 | -80.70983 | 5927 ft | 128 kts | 342° |
| 2026-04-26 12:47 | 28.21357 | -80.71196 | 6291 ft | 126 kts | 341° |
| 2026-04-26 12:47 | 28.22203 | -80.71402 | 6635 ft | 124 kts | 341° |
| 2026-04-26 12:47 | 28.23050 | -80.71608 | 6950 ft | 126 kts | 342° |
| 2026-04-26 12:47 | 28.23908 | -80.71814 | 7258 ft | 128 kts | 342° |
| 2026-04-26 12:48 | 28.24782 | -80.72026 | 7570 ft | 129 kts | 342° |
| 2026-04-26 12:48 | 28.25682 | -80.72245 | 7824 ft | 136 kts | 343° |
| 2026-04-26 12:48 | 28.26633 | -80.72475 | 7977 ft | 148 kts | 343° |
| 2026-04-26 12:48 | 28.27695 | -80.72729 | 7994 ft | 162 kts | 344° |
| 2026-04-26 12:49 | 28.28833 | -80.73001 | 7983 ft | 170 kts | 344° |
| 2026-04-26 12:49 | 28.30003 | -80.73283 | 7984 ft | 173 kts | 344° |
| 2026-04-26 12:49 | 28.31187 | -80.73571 | 7987 ft | 174 kts | 344° |
| 2026-04-26 12:49 | 28.32369 | -80.73857 | 7988 ft | 173 kts | 344° |
| 2026-04-26 12:50 | 28.33547 | -80.74143 | 7985 ft | 173 kts | 343° |
| 2026-04-26 12:50 | 28.34709 | -80.74425 | 7983 ft | 173 kts | 343° |
| 2026-04-26 12:50 | 28.35891 | -80.74713 | 8030 ft | 174 kts | 344° |
| 2026-04-26 12:50 | 28.37082 | -80.75002 | 8031 ft | 175 kts | 343° |
| 2026-04-26 12:51 | 28.38278 | -80.75292 | 8033 ft | 176 kts | 343° |
| 2026-04-26 12:51 | 28.39476 | -80.75583 | 8034 ft | 177 kts | 343° |
| 2026-04-26 12:51 | 28.40677 | -80.75874 | 8029 ft | 176 kts | 343° |
| 2026-04-26 12:51 | 28.41878 | -80.76166 | 8036 ft | 176 kts | 343° |
| 2026-04-26 12:52 | 28.43078 | -80.76459 | 8044 ft | 176 kts | 344° |
| 2026-04-26 12:52 | 28.44244 | -80.76864 | 8043 ft | 175 kts | 335° |
| 2026-04-26 12:52 | 28.45392 | -80.77326 | 8043 ft | 175 kts | 337° |
| 2026-04-26 12:52 | 28.46543 | -80.77776 | 8033 ft | 174 kts | 336° |
| 2026-04-26 12:53 | 28.47678 | -80.78225 | 8043 ft | 175 kts | 336° |
| 2026-04-26 12:53 | 28.48827 | -80.78678 | 8042 ft | 174 kts | 336° |
| 2026-04-26 12:53 | 28.49968 | -80.79135 | 8036 ft | 173 kts | 337° |
| 2026-04-26 12:53 | 28.51105 | -80.79583 | 8040 ft | 174 kts | 336° |
| 2026-04-26 12:54 | 28.52252 | -80.80039 | 8036 ft | 175 kts | 336° |
| 2026-04-26 12:54 | 28.53398 | -80.80497 | 8037 ft | 173 kts | 336° |
| 2026-04-26 12:54 | 28.54533 | -80.80950 | 8033 ft | 173 kts | 336° |
| 2026-04-26 12:54 | 28.55671 | -80.81406 | 8038 ft | 173 kts | 336° |
| 2026-04-26 12:55 | 28.56802 | -80.81856 | 8034 ft | 174 kts | 336° |
| 2026-04-26 12:55 | 28.57946 | -80.82314 | 8038 ft | 174 kts | 336° |
| 2026-04-26 12:55 | 28.59095 | -80.82772 | 8037 ft | 174 kts | 336° |
| 2026-04-26 12:55 | 28.60241 | -80.83229 | 8038 ft | 175 kts | 336° |
| 2026-04-26 12:56 | 28.61386 | -80.83687 | 8042 ft | 175 kts | 336° |
| 2026-04-26 12:56 | 28.62536 | -80.84148 | 8035 ft | 175 kts | 336° |
| 2026-04-26 12:56 | 28.63688 | -80.84608 | 8033 ft | 175 kts | 336° |
| 2026-04-26 12:56 | 28.64830 | -80.85064 | 8030 ft | 173 kts | 336° |
| 2026-04-26 12:57 | 28.65966 | -80.85518 | 7998 ft | 172 kts | 336° |
| 2026-04-26 12:57 | 28.67096 | -80.85970 | 7997 ft | 172 kts | 336° |
| 2026-04-26 12:57 | 28.68212 | -80.86417 | 7998 ft | 172 kts | 336° |
| 2026-04-26 12:58 | 28.70478 | -80.87317 | 7996 ft | 173 kts | 337° |
| 2026-04-26 12:58 | 28.71620 | -80.87759 | 8000 ft | 173 kts | 336° |
| 2026-04-26 12:58 | 28.72763 | -80.88205 | 8000 ft | 173 kts | 336° |
| 2026-04-26 12:58 | 28.73898 | -80.88651 | 7998 ft | 173 kts | 336° |
| 2026-04-26 12:59 | 28.75032 | -80.89102 | 7998 ft | 172 kts | 336° |
| 2026-04-26 12:59 | 28.76164 | -80.89554 | 7999 ft | 171 kts | 336° |
| 2026-04-26 12:59 | 28.77291 | -80.90006 | 8006 ft | 173 kts | 336° |
| 2026-04-26 12:59 | 28.78428 | -80.90460 | 8002 ft | 173 kts | 336° |
| 2026-04-26 13:00 | 28.79545 | -80.90907 | 8001 ft | 172 kts | 336° |
| 2026-04-26 13:00 | 28.80674 | -80.91356 | 8011 ft | 171 kts | 336° |
| 2026-04-26 13:00 | 28.81801 | -80.91807 | 8009 ft | 171 kts | 336° |
| 2026-04-26 13:00 | 28.82924 | -80.92256 | 8008 ft | 171 kts | 336° |
| 2026-04-26 13:01 | 28.84048 | -80.92705 | 8009 ft | 171 kts | 336° |
| 2026-04-26 13:01 | 28.85174 | -80.93155 | 8011 ft | 171 kts | 336° |
| 2026-04-26 13:01 | 28.85919 | -80.93453 | 8011 ft | 171 kts | 336° |
| 2026-04-26 13:01 | 28.87040 | -80.93901 | 8013 ft | 171 kts | 336° |
| 2026-04-26 13:02 | 28.88162 | -80.94349 | 8011 ft | 171 kts | 336° |
| 2026-04-26 13:02 | 28.89284 | -80.94798 | 8005 ft | 171 kts | 336° |
| 2026-04-26 13:02 | 28.90404 | -80.95246 | 8007 ft | 170 kts | 336° |
| 2026-04-26 13:02 | 28.91525 | -80.95694 | 8007 ft | 171 kts | 336° |
| 2026-04-26 13:03 | 28.92650 | -80.96145 | 8008 ft | 171 kts | 336° |
| 2026-04-26 13:03 | 28.93758 | -80.96589 | 8016 ft | 171 kts | 336° |
| 2026-04-26 13:03 | 28.94886 | -80.97040 | 8018 ft | 172 kts | 336° |
| 2026-04-26 13:03 | 28.96016 | -80.97492 | 8015 ft | 172 kts | 336° |
| 2026-04-26 13:04 | 28.97141 | -80.97941 | 8020 ft | 171 kts | 336° |
| 2026-04-26 13:04 | 28.98264 | -80.98392 | 8017 ft | 171 kts | 336° |
| 2026-04-26 13:04 | 28.99388 | -80.98842 | 8016 ft | 171 kts | 336° |
| 2026-04-26 13:04 | 29.00507 | -80.99291 | 8019 ft | 171 kts | 336° |
| 2026-04-26 13:05 | 29.01628 | -80.99741 | 8019 ft | 171 kts | 336° |
| 2026-04-26 13:05 | 29.02753 | -81.00191 | 8021 ft | 171 kts | 336° |
| 2026-04-26 13:05 | 29.03877 | -81.00642 | 8016 ft | 171 kts | 336° |
| 2026-04-26 13:05 | 29.04985 | -81.01087 | 8016 ft | 171 kts | 336° |
| 2026-04-26 13:06 | 29.06103 | -81.01535 | 8018 ft | 170 kts | 336° |
| 2026-04-26 13:06 | 29.07219 | -81.01983 | 8020 ft | 170 kts | 335° |
| 2026-04-26 13:06 | 29.08338 | -81.02433 | 8019 ft | 171 kts | 336° |
| 2026-04-26 13:06 | 29.09458 | -81.02883 | 8016 ft | 171 kts | 336° |
| 2026-04-26 13:07 | 29.10579 | -81.03333 | 8017 ft | 171 kts | 336° |
| 2026-04-26 13:07 | 29.11704 | -81.03785 | 8018 ft | 171 kts | 336° |
| 2026-04-26 13:07 | 29.12824 | -81.04235 | 8018 ft | 171 kts | 336° |
| 2026-04-26 13:07 | 29.13947 | -81.04686 | 8018 ft | 171 kts | 336° |
| 2026-04-26 13:08 | 29.15067 | -81.05137 | 8018 ft | 171 kts | 336° |
| 2026-04-26 13:08 | 29.16187 | -81.05587 | 8017 ft | 171 kts | 336° |
| 2026-04-26 13:08 | 29.17307 | -81.06037 | 8018 ft | 170 kts | 336° |
| 2026-04-26 13:08 | 29.18425 | -81.06488 | 8020 ft | 170 kts | 336° |
| 2026-04-26 13:09 | 29.19544 | -81.06938 | 8017 ft | 170 kts | 336° |
| 2026-04-26 13:09 | 29.20646 | -81.07381 | 8017 ft | 170 kts | 336° |
| 2026-04-26 13:09 | 29.21779 | -81.07838 | 8017 ft | 170 kts | 336° |
| 2026-04-26 13:09 | 29.22886 | -81.08283 | 8019 ft | 170 kts | 336° |
| 2026-04-26 13:10 | 29.24003 | -81.08733 | 8018 ft | 170 kts | 335° |
| 2026-04-26 13:10 | 29.25119 | -81.09183 | 8019 ft | 170 kts | 336° |
| 2026-04-26 13:10 | 29.26235 | -81.09633 | 8017 ft | 170 kts | 335° |
| 2026-04-26 13:10 | 29.27353 | -81.10083 | 8020 ft | 170 kts | 336° |
| 2026-04-26 13:11 | 29.28471 | -81.10534 | 8016 ft | 170 kts | 336° |
| 2026-04-26 13:11 | 29.29592 | -81.10986 | 8019 ft | 170 kts | 336° |
| 2026-04-26 13:11 | 29.30729 | -81.11377 | 8014 ft | 173 kts | 345° |
| 2026-04-26 13:11 | 29.31920 | -81.11584 | 8015 ft | 173 kts | 346° |
| 2026-04-26 13:12 | 29.33091 | -81.11798 | 8016 ft | 173 kts | 346° |
| 2026-04-26 13:12 | 29.34274 | -81.12021 | 8016 ft | 172 kts | 346° |
| 2026-04-26 13:12 | 29.35458 | -81.12244 | 8017 ft | 172 kts | 346° |
| 2026-04-26 13:12 | 29.36645 | -81.12467 | 8017 ft | 173 kts | 346° |
| 2026-04-26 13:13 | 29.37829 | -81.12689 | 8018 ft | 172 kts | 346° |
| 2026-04-26 13:13 | 29.39009 | -81.12911 | 8016 ft | 172 kts | 346° |
| 2026-04-26 13:13 | 29.40189 | -81.13132 | 8024 ft | 172 kts | 346° |
| 2026-04-26 13:13 | 29.41368 | -81.13354 | 8024 ft | 171 kts | 346° |
| 2026-04-26 13:14 | 29.42544 | -81.13575 | 8022 ft | 171 kts | 346° |
| 2026-04-26 13:14 | 29.43722 | -81.13796 | 8024 ft | 172 kts | 346° |
| 2026-04-26 13:14 | 29.44904 | -81.14018 | 8026 ft | 172 kts | 346° |
| 2026-04-26 13:14 | 29.46087 | -81.14240 | 8024 ft | 172 kts | 346° |
| 2026-04-26 13:15 | 29.47269 | -81.14463 | 8028 ft | 172 kts | 346° |
| 2026-04-26 13:15 | 29.48439 | -81.14683 | 8029 ft | 173 kts | 346° |
| 2026-04-26 13:15 | 29.49624 | -81.14906 | 8027 ft | 172 kts | 346° |
| 2026-04-26 13:15 | 29.50806 | -81.15128 | 8028 ft | 172 kts | 346° |
| 2026-04-26 13:16 | 29.51994 | -81.15353 | 8027 ft | 172 kts | 346° |
| 2026-04-26 13:16 | 29.53181 | -81.15575 | 8028 ft | 173 kts | 346° |
| 2026-04-26 13:16 | 29.54369 | -81.15800 | 8027 ft | 173 kts | 346° |
| 2026-04-26 13:16 | 29.55558 | -81.16022 | 8028 ft | 173 kts | 346° |
| 2026-04-26 13:17 | 29.57924 | -81.16469 | 8025 ft | 172 kts | 346° |
| 2026-04-26 13:17 | 29.59107 | -81.16692 | 8022 ft | 172 kts | 346° |
| 2026-04-26 13:18 | 29.61469 | -81.17138 | 8021 ft | 172 kts | 346° |
| 2026-04-26 13:18 | 29.62649 | -81.17360 | 8019 ft | 172 kts | 346° |
| 2026-04-26 13:18 | 29.64997 | -81.17803 | 8020 ft | 172 kts | 346° |
| 2026-04-26 13:19 | 29.66177 | -81.18025 | 8017 ft | 172 kts | 346° |
| 2026-04-26 13:19 | 29.67355 | -81.18248 | 8016 ft | 172 kts | 346° |
| 2026-04-26 13:19 | 29.68532 | -81.18470 | 8017 ft | 172 kts | 346° |
| 2026-04-26 13:19 | 29.69709 | -81.18693 | 8016 ft | 171 kts | 346° |
| 2026-04-26 13:20 | 29.70888 | -81.18915 | 8014 ft | 171 kts | 346° |
| 2026-04-26 13:20 | 29.72063 | -81.19137 | 8015 ft | 171 kts | 346° |
| 2026-04-26 13:20 | 29.73241 | -81.19360 | 8012 ft | 171 kts | 346° |
| 2026-04-26 13:20 | 29.74418 | -81.19583 | 8013 ft | 171 kts | 346° |
| 2026-04-26 13:21 | 29.75592 | -81.19805 | 8015 ft | 171 kts | 346° |
| 2026-04-26 13:21 | 29.76375 | -81.19952 | 8014 ft | 171 kts | 346° |
| 2026-04-26 13:21 | 29.77949 | -81.20251 | 8015 ft | 171 kts | 346° |
| 2026-04-26 13:21 | 29.79110 | -81.20470 | 8015 ft | 172 kts | 346° |
| 2026-04-26 13:22 | 29.80292 | -81.20694 | 8017 ft | 172 kts | 346° |
| 2026-04-26 13:22 | 29.81472 | -81.20918 | 8018 ft | 172 kts | 346° |
| 2026-04-26 13:22 | 29.82650 | -81.21140 | 8018 ft | 172 kts | 346° |
| 2026-04-26 13:22 | 29.83831 | -81.21364 | 8019 ft | 172 kts | 346° |
| 2026-04-26 13:23 | 29.85010 | -81.21587 | 8019 ft | 171 kts | 346° |
| 2026-04-26 13:23 | 29.86190 | -81.21811 | 8021 ft | 171 kts | 346° |
| 2026-04-26 13:23 | 29.87368 | -81.22034 | 8020 ft | 172 kts | 346° |
| 2026-04-26 13:23 | 29.88547 | -81.22257 | 8021 ft | 171 kts | 346° |
| 2026-04-26 13:24 | 29.89725 | -81.22481 | 8021 ft | 171 kts | 346° |
| 2026-04-26 13:24 | 29.90886 | -81.22701 | 8023 ft | 171 kts | 346° |
| 2026-04-26 13:24 | 29.92061 | -81.22923 | 8021 ft | 171 kts | 346° |
| 2026-04-26 13:24 | 29.93240 | -81.23147 | 8025 ft | 171 kts | 346° |
| 2026-04-26 13:25 | 29.94415 | -81.23370 | 8020 ft | 171 kts | 346° |
| 2026-04-26 13:25 | 29.95590 | -81.23593 | 8023 ft | 171 kts | 346° |
| 2026-04-26 13:25 | 29.96768 | -81.23817 | 8024 ft | 171 kts | 346° |
| 2026-04-26 13:25 | 29.97942 | -81.24040 | 8023 ft | 171 kts | 346° |
| 2026-04-26 13:26 | 29.99118 | -81.24263 | 8023 ft | 171 kts | 346° |
| 2026-04-26 13:26 | 30.00293 | -81.24486 | 8023 ft | 171 kts | 346° |
| 2026-04-26 13:26 | 30.01469 | -81.24709 | 8021 ft | 171 kts | 346° |
| 2026-04-26 13:26 | 30.02647 | -81.24933 | 8022 ft | 171 kts | 346° |
| 2026-04-26 13:27 | 30.03824 | -81.25157 | 8021 ft | 171 kts | 346° |
| 2026-04-26 13:27 | 30.05000 | -81.25381 | 8022 ft | 171 kts | 346° |
| 2026-04-26 13:27 | 30.06177 | -81.25604 | 8021 ft | 171 kts | 346° |
| 2026-04-26 13:27 | 30.07353 | -81.25828 | 8021 ft | 171 kts | 346° |
| 2026-04-26 13:28 | 30.08531 | -81.26052 | 8020 ft | 171 kts | 346° |
| 2026-04-26 13:28 | 30.09708 | -81.26276 | 8021 ft | 171 kts | 346° |
| 2026-04-26 13:28 | 30.10882 | -81.26500 | 8019 ft | 171 kts | 346° |
| 2026-04-26 13:28 | 30.12045 | -81.26721 | 8020 ft | 171 kts | 346° |
| 2026-04-26 13:29 | 30.13225 | -81.26946 | 8018 ft | 171 kts | 346° |
| 2026-04-26 13:29 | 30.14004 | -81.27094 | 8018 ft | 171 kts | 346° |
| 2026-04-26 13:29 | 30.15574 | -81.27393 | 8016 ft | 171 kts | 346° |
| 2026-04-26 13:29 | 30.16748 | -81.27617 | 8015 ft | 171 kts | 346° |
| 2026-04-26 13:30 | 30.17923 | -81.27841 | 8014 ft | 171 kts | 346° |
| 2026-04-26 13:30 | 30.19096 | -81.28065 | 8015 ft | 171 kts | 346° |
| 2026-04-26 13:30 | 30.20269 | -81.28288 | 8007 ft | 171 kts | 346° |
| 2026-04-26 13:30 | 30.21441 | -81.28512 | 8008 ft | 171 kts | 346° |
| 2026-04-26 13:31 | 30.22597 | -81.28733 | 8009 ft | 171 kts | 346° |
| 2026-04-26 13:31 | 30.23771 | -81.28957 | 8011 ft | 171 kts | 346° |
| 2026-04-26 13:31 | 30.24943 | -81.29180 | 8011 ft | 171 kts | 346° |
| 2026-04-26 13:31 | 30.26114 | -81.29404 | 8011 ft | 171 kts | 346° |
| 2026-04-26 13:32 | 30.27286 | -81.29628 | 8012 ft | 171 kts | 346° |
| 2026-04-26 13:32 | 30.28458 | -81.29852 | 8011 ft | 171 kts | 346° |
| 2026-04-26 13:32 | 30.29630 | -81.30076 | 8010 ft | 171 kts | 346° |
| 2026-04-26 13:32 | 30.30808 | -81.30301 | 8013 ft | 171 kts | 346° |
| 2026-04-26 13:33 | 30.31981 | -81.30525 | 8014 ft | 171 kts | 346° |
| 2026-04-26 13:33 | 30.33139 | -81.30747 | 8015 ft | 171 kts | 346° |
| 2026-04-26 13:33 | 30.34312 | -81.30971 | 8013 ft | 171 kts | 346° |
| 2026-04-26 13:33 | 30.35484 | -81.31195 | 8012 ft | 171 kts | 346° |
| 2026-04-26 13:34 | 30.36652 | -81.31419 | 8012 ft | 171 kts | 346° |
| 2026-04-26 13:34 | 30.37824 | -81.31643 | 8013 ft | 170 kts | 346° |
| 2026-04-26 13:34 | 30.38995 | -81.31867 | 8014 ft | 170 kts | 346° |
| 2026-04-26 13:34 | 30.39769 | -81.32015 | 8013 ft | 170 kts | 346° |
| 2026-04-26 13:35 | 30.41335 | -81.32315 | 8013 ft | 171 kts | 346° |
| 2026-04-26 13:35 | 30.42508 | -81.32540 | 8015 ft | 171 kts | 346° |
| 2026-04-26 13:35 | 30.43682 | -81.32765 | 8014 ft | 171 kts | 346° |
| 2026-04-26 13:35 | 30.44852 | -81.32990 | 8015 ft | 170 kts | 346° |
| 2026-04-26 13:36 | 30.46021 | -81.33214 | 8014 ft | 170 kts | 346° |
| 2026-04-26 13:36 | 30.47190 | -81.33438 | 8014 ft | 170 kts | 346° |
| 2026-04-26 13:36 | 30.48344 | -81.33659 | 8014 ft | 170 kts | 346° |
| 2026-04-26 13:36 | 30.49511 | -81.33883 | 8014 ft | 170 kts | 346° |
| 2026-04-26 13:37 | 30.50679 | -81.34108 | 8015 ft | 170 kts | 346° |
| 2026-04-26 13:37 | 30.51846 | -81.34331 | 8023 ft | 170 kts | 348° |
| 2026-04-26 13:37 | 30.53012 | -81.34550 | 8022 ft | 170 kts | 346° |
| 2026-04-26 13:37 | 30.54177 | -81.34780 | 8026 ft | 169 kts | 346° |
| 2026-04-26 13:38 | 30.55341 | -81.35004 | 8025 ft | 170 kts | 346° |
| 2026-04-26 13:38 | 30.56505 | -81.35227 | 8024 ft | 170 kts | 346° |
| 2026-04-26 13:38 | 30.57671 | -81.35451 | 8026 ft | 170 kts | 346° |
| 2026-04-26 13:38 | 30.58836 | -81.35675 | 8024 ft | 170 kts | 346° |
| 2026-04-26 13:39 | 30.60002 | -81.35899 | 8026 ft | 170 kts | 346° |
| 2026-04-26 13:39 | 30.61168 | -81.36124 | 8024 ft | 170 kts | 346° |
| 2026-04-26 13:39 | 30.62333 | -81.36347 | 8027 ft | 170 kts | 346° |
| 2026-04-26 13:39 | 30.63483 | -81.36569 | 8024 ft | 170 kts | 346° |
| 2026-04-26 13:40 | 30.64648 | -81.36793 | 8026 ft | 170 kts | 346° |
| 2026-04-26 13:40 | 30.65813 | -81.37018 | 8026 ft | 170 kts | 346° |
| 2026-04-26 13:40 | 30.66992 | -81.37099 | 8023 ft | 173 kts | 5° |
| 2026-04-26 13:40 | 30.68144 | -81.36641 | 8028 ft | 176 kts | 18° |
| 2026-04-26 13:41 | 30.69280 | -81.36104 | 8029 ft | 176 kts | 17° |
| 2026-04-26 13:41 | 30.70427 | -81.35609 | 8030 ft | 176 kts | 15° |
| 2026-04-26 13:41 | 30.71581 | -81.35122 | 8033 ft | 176 kts | 15° |
| 2026-04-26 13:41 | 30.72728 | -81.34638 | 8035 ft | 175 kts | 15° |
| 2026-04-26 13:42 | 30.73876 | -81.34153 | 8039 ft | 176 kts | 15° |
| 2026-04-26 13:42 | 30.75010 | -81.33672 | 8037 ft | 176 kts | 15° |
| 2026-04-26 13:42 | 30.76159 | -81.33186 | 8040 ft | 176 kts | 15° |
| 2026-04-26 13:42 | 30.77309 | -81.32699 | 8041 ft | 176 kts | 15° |
| 2026-04-26 13:43 | 30.78459 | -81.32213 | 8045 ft | 176 kts | 15° |
| 2026-04-26 13:43 | 30.79596 | -81.31729 | 8136 ft | 171 kts | 15° |
| 2026-04-26 13:43 | 30.80701 | -81.31260 | 8256 ft | 167 kts | 15° |
| 2026-04-26 13:43 | 30.81790 | -81.30799 | 8377 ft | 165 kts | 15° |
| 2026-04-26 13:44 | 30.82864 | -81.30343 | 8499 ft | 164 kts | 15° |
| 2026-04-26 13:44 | 30.83934 | -81.29890 | 8622 ft | 163 kts | 15° |
| 2026-04-26 13:44 | 30.84998 | -81.29439 | 8747 ft | 162 kts | 15° |
| 2026-04-26 13:44 | 30.86062 | -81.28987 | 8875 ft | 162 kts | 15° |
| 2026-04-26 13:45 | 30.87121 | -81.28538 | 8990 ft | 162 kts | 15° |
| 2026-04-26 13:45 | 30.88188 | -81.28086 | 9036 ft | 166 kts | 15° |
| 2026-04-26 13:45 | 30.89275 | -81.27624 | 9037 ft | 170 kts | 15° |
| 2026-04-26 13:45 | 30.90396 | -81.27148 | 9040 ft | 173 kts | 16° |
| 2026-04-26 13:46 | 30.91529 | -81.26667 | 9044 ft | 174 kts | 16° |
| 2026-04-26 13:46 | 30.92670 | -81.26182 | 9040 ft | 175 kts | 15° |
| 2026-04-26 13:46 | 30.93817 | -81.25694 | 9038 ft | 175 kts | 15° |
| 2026-04-26 13:46 | 30.94964 | -81.25206 | 9037 ft | 176 kts | 15° |
| 2026-04-26 13:47 | 30.96112 | -81.24718 | 9036 ft | 176 kts | 15° |
| 2026-04-26 13:47 | 30.97260 | -81.24230 | 9034 ft | 176 kts | 15° |
| 2026-04-26 13:47 | 30.98409 | -81.23740 | 9027 ft | 176 kts | 15° |
| 2026-04-26 13:47 | 30.99559 | -81.23251 | 9029 ft | 176 kts | 15° |
| 2026-04-26 13:48 | 31.00710 | -81.22761 | 9027 ft | 176 kts | 16° |
| 2026-04-26 13:48 | 31.01860 | -81.22271 | 9026 ft | 176 kts | 15° |
| 2026-04-26 13:48 | 31.03011 | -81.21781 | 9022 ft | 176 kts | 15° |
| 2026-04-26 13:48 | 31.04164 | -81.21289 | 9026 ft | 176 kts | 16° |
| 2026-04-26 13:49 | 31.05314 | -81.20799 | 9022 ft | 176 kts | 15° |
| 2026-04-26 13:49 | 31.06464 | -81.20309 | 9022 ft | 176 kts | 15° |
| 2026-04-26 13:49 | 31.07614 | -81.19818 | 9020 ft | 176 kts | 16° |
| 2026-04-26 13:49 | 31.08765 | -81.19327 | 9020 ft | 176 kts | 15° |
| 2026-04-26 13:50 | 31.09525 | -81.19004 | 9021 ft | 176 kts | 16° |
| 2026-04-26 13:50 | 31.10673 | -81.18513 | 9021 ft | 176 kts | 15° |
| 2026-04-26 13:50 | 31.11822 | -81.18023 | 9017 ft | 176 kts | 16° |
| 2026-04-26 13:50 | 31.13348 | -81.17371 | 9020 ft | 176 kts | 15° |
| 2026-04-26 13:51 | 31.14498 | -81.16880 | 9019 ft | 176 kts | 15° |
| 2026-04-26 13:51 | 31.15274 | -81.16548 | 9016 ft | 176 kts | 15° |
| 2026-04-26 13:51 | 31.16425 | -81.16057 | 9015 ft | 176 kts | 15° |
| 2026-04-26 13:51 | 31.17574 | -81.15565 | 9016 ft | 176 kts | 15° |
| 2026-04-26 13:52 | 31.18724 | -81.15074 | 9017 ft | 176 kts | 15° |
| 2026-04-26 13:52 | 31.19859 | -81.14588 | 9019 ft | 176 kts | 15° |
| 2026-04-26 13:52 | 31.21009 | -81.14097 | 9015 ft | 176 kts | 15° |
| 2026-04-26 13:52 | 31.22160 | -81.13604 | 9015 ft | 176 kts | 16° |
| 2026-04-26 13:53 | 31.23311 | -81.13112 | 9013 ft | 176 kts | 15° |
| 2026-04-26 13:53 | 31.24461 | -81.12619 | 9017 ft | 176 kts | 16° |
| 2026-04-26 13:53 | 31.25611 | -81.12127 | 9015 ft | 176 kts | 15° |
| 2026-04-26 13:53 | 31.26763 | -81.11633 | 9013 ft | 176 kts | 15° |
| 2026-04-26 13:54 | 31.27915 | -81.11139 | 9015 ft | 176 kts | 15° |
| 2026-04-26 13:54 | 31.29065 | -81.10647 | 9013 ft | 176 kts | 15° |
| 2026-04-26 13:54 | 31.30217 | -81.10153 | 9016 ft | 176 kts | 16° |
| 2026-04-26 13:55 | 31.32522 | -81.09165 | 9013 ft | 176 kts | 16° |
| 2026-04-26 13:55 | 31.33286 | -81.08837 | 9009 ft | 176 kts | 16° |
| 2026-04-26 13:55 | 31.35968 | -81.07686 | 9004 ft | 177 kts | 16° |
| 2026-04-26 13:56 | 31.37124 | -81.07190 | 9006 ft | 177 kts | 16° |
| 2026-04-26 13:56 | 31.38279 | -81.06694 | 9006 ft | 177 kts | 16° |
| 2026-04-26 13:56 | 31.39434 | -81.06197 | 9002 ft | 177 kts | 16° |
| 2026-04-26 13:56 | 31.40588 | -81.05701 | 9005 ft | 177 kts | 16° |
| 2026-04-26 13:57 | 31.41745 | -81.05204 | 9002 ft | 177 kts | 16° |
| 2026-04-26 13:57 | 31.42902 | -81.04707 | 9003 ft | 177 kts | 16° |
| 2026-04-26 13:57 | 31.44059 | -81.04209 | 8998 ft | 177 kts | 16° |
| 2026-04-26 13:57 | 31.45220 | -81.03710 | 9001 ft | 177 kts | 16° |
| 2026-04-26 13:58 | 31.46376 | -81.03213 | 8999 ft | 177 kts | 15° |
| 2026-04-26 13:58 | 31.47518 | -81.02721 | 9000 ft | 177 kts | 16° |
| 2026-04-26 13:58 | 31.48673 | -81.02224 | 8992 ft | 177 kts | 16° |
| 2026-04-26 13:58 | 31.49830 | -81.01726 | 8993 ft | 177 kts | 16° |
| 2026-04-26 13:59 | 31.50986 | -81.01228 | 8993 ft | 177 kts | 16° |
| 2026-04-26 13:59 | 31.52142 | -81.00730 | 8997 ft | 177 kts | 16° |
| 2026-04-26 13:59 | 31.53299 | -81.00231 | 8996 ft | 177 kts | 15° |
| 2026-04-26 14:00 | 31.56774 | -80.98733 | 8994 ft | 177 kts | 15° |
| 2026-04-26 14:00 | 31.57918 | -80.98240 | 8996 ft | 178 kts | 16° |
| 2026-04-26 14:00 | 31.58702 | -80.97902 | 8991 ft | 178 kts | 15° |
| 2026-04-26 14:01 | 31.60239 | -80.97238 | 8992 ft | 178 kts | 15° |
| 2026-04-26 14:01 | 31.61399 | -80.96737 | 8993 ft | 178 kts | 16° |
| 2026-04-26 14:01 | 31.62559 | -80.96236 | 8993 ft | 178 kts | 16° |
| 2026-04-26 14:01 | 31.63719 | -80.95735 | 8990 ft | 178 kts | 16° |
| 2026-04-26 14:02 | 31.64880 | -80.95234 | 8992 ft | 178 kts | 16° |
| 2026-04-26 14:02 | 31.66040 | -80.94732 | 8986 ft | 178 kts | 15° |
| 2026-04-26 14:02 | 31.67201 | -80.94230 | 8985 ft | 177 kts | 15° |
| 2026-04-26 14:02 | 31.68360 | -80.93729 | 8985 ft | 177 kts | 16° |
| 2026-04-26 14:03 | 31.69518 | -80.93228 | 8985 ft | 177 kts | 16° |
| 2026-04-26 14:03 | 31.70677 | -80.92727 | 8988 ft | 177 kts | 16° |
| 2026-04-26 14:03 | 31.71836 | -80.92225 | 8990 ft | 178 kts | 16° |
| 2026-04-26 14:03 | 31.72996 | -80.91723 | 8988 ft | 177 kts | 16° |
| 2026-04-26 14:04 | 31.74141 | -80.91228 | 8985 ft | 178 kts | 16° |
| 2026-04-26 14:04 | 31.75300 | -80.90725 | 8986 ft | 178 kts | 16° |
| 2026-04-26 14:04 | 31.76464 | -80.90221 | 8986 ft | 178 kts | 16° |
| 2026-04-26 14:04 | 31.77627 | -80.89717 | 8983 ft | 178 kts | 16° |
| 2026-04-26 14:05 | 31.78788 | -80.89214 | 8978 ft | 178 kts | 16° |
| 2026-04-26 14:05 | 31.79948 | -80.88719 | 8732 ft | 175 kts | 14° |
| 2026-04-26 14:05 | 31.81106 | -80.88358 | 8475 ft | 168 kts | 9° |
| 2026-04-26 14:05 | 31.82187 | -80.88032 | 8205 ft | 154 kts | 10° |
| 2026-04-26 14:06 | 31.83200 | -80.87707 | 7944 ft | 148 kts | 10° |
| 2026-04-26 14:06 | 31.84182 | -80.87389 | 7683 ft | 145 kts | 10° |
| 2026-04-26 14:06 | 31.85151 | -80.87073 | 7437 ft | 144 kts | 10° |
| 2026-04-26 14:06 | 31.86110 | -80.86761 | 7189 ft | 142 kts | 10° |
| 2026-04-26 14:07 | 31.87061 | -80.86450 | 6942 ft | 142 kts | 10° |
| 2026-04-26 14:07 | 31.87992 | -80.86145 | 6706 ft | 140 kts | 11° |
| 2026-04-26 14:07 | 31.88927 | -80.85839 | 6469 ft | 139 kts | 10° |
| 2026-04-26 14:07 | 31.89857 | -80.85535 | 6229 ft | 138 kts | 10° |
| 2026-04-26 14:08 | 31.90483 | -80.85330 | 6057 ft | 138 kts | 10° |
| 2026-04-26 14:08 | 31.90968 | -80.85172 | 5923 ft | 138 kts | 11° |
| 2026-04-26 14:08 | 31.91895 | -80.84869 | 5675 ft | 138 kts | 11° |
| 2026-04-26 14:08 | 31.92823 | -80.84564 | 5425 ft | 138 kts | 10° |
| 2026-04-26 14:09 | 31.93747 | -80.84262 | 5183 ft | 138 kts | 11° |
| 2026-04-26 14:09 | 31.94671 | -80.83959 | 4938 ft | 138 kts | 11° |
| 2026-04-26 14:09 | 31.95594 | -80.83658 | 4697 ft | 138 kts | 11° |
| 2026-04-26 14:09 | 31.96521 | -80.83354 | 4444 ft | 138 kts | 11° |
| 2026-04-26 14:10 | 31.97433 | -80.83055 | 4202 ft | 138 kts | 12° |
| 2026-04-26 14:10 | 31.98354 | -80.82753 | 3949 ft | 137 kts | 12° |
| 2026-04-26 14:10 | 31.99273 | -80.82452 | 3725 ft | 136 kts | 12° |
| 2026-04-26 14:10 | 32.00184 | -80.82153 | 3483 ft | 136 kts | 12° |
| 2026-04-26 14:11 | 32.01978 | -80.81473 | 2992 ft | 138 kts | 30° |
| 2026-04-26 14:11 | 32.02602 | -80.80593 | 2743 ft | 142 kts | 51° |
| 2026-04-26 14:11 | 32.03373 | -80.79885 | 2502 ft | 141 kts | 29° |
| 2026-04-26 14:12 | 32.04233 | -80.79366 | 2329 ft | 136 kts | 15° |
| 2026-04-26 14:12 | 32.05109 | -80.79013 | 2204 ft | 131 kts | 17° |
| 2026-04-26 14:12 | 32.05949 | -80.78620 | 2079 ft | 129 kts | 19° |
| 2026-04-26 14:12 | 32.06764 | -80.78227 | 1957 ft | 127 kts | 19° |
| 2026-04-26 14:13 | 32.08391 | -80.77420 | 1811 ft | 124 kts | 19° |
| 2026-04-26 14:13 | 32.09180 | -80.77030 | 1811 ft | 122 kts | 19° |
| 2026-04-26 14:13 | 32.09963 | -80.76640 | 1816 ft | 123 kts | 18° |
| 2026-04-26 14:14 | 32.10761 | -80.76246 | 1818 ft | 126 kts | 19° |
| 2026-04-26 14:14 | 32.11576 | -80.75838 | 1822 ft | 128 kts | 19° |
| 2026-04-26 14:14 | 32.12401 | -80.75428 | 1818 ft | 128 kts | 20° |
| 2026-04-26 14:14 | 32.13214 | -80.75021 | 1819 ft | 126 kts | 20° |
| 2026-04-26 14:15 | 32.14006 | -80.74593 | 1722 ft | 127 kts | 25° |
| 2026-04-26 14:15 | 32.14800 | -80.74126 | 1571 ft | 132 kts | 20° |
| 2026-04-26 14:15 | 32.15603 | -80.73681 | 1398 ft | 123 kts | 22° |
| 2026-04-26 14:15 | 32.16364 | -80.73245 | 1231 ft | 120 kts | 22° |
| 2026-04-26 14:16 | 32.17084 | -80.72834 | 1115 ft | 104 kts | 22° |
| 2026-04-26 14:16 | 32.17709 | -80.72478 | 966 ft | 97 kts | 22° |
| 2026-04-26 14:16 | 32.18307 | -80.72132 | 836 ft | 93 kts | 22° |
| 2026-04-26 14:16 | 32.18883 | -80.71805 | 707 ft | 90 kts | 23° |
| 2026-04-26 14:17 | 32.19438 | -80.71487 | 593 ft | 84 kts | 23° |
| 2026-04-26 14:17 | 32.19923 | -80.71209 | 475 ft | 73 kts | 23° |
| 2026-04-26 14:17 | 32.20377 | -80.70954 | 374 ft | 72 kts | 25° |
| 2026-04-26 14:17 | 32.20840 | -80.70686 | 290 ft | 79 kts | 26° |
| 2026-04-26 14:18 | 32.21328 | -80.70395 | 175 ft | 78 kts | 23° |
| 2026-04-26 14:18 | 32.21793 | -80.70119 | 72 ft | 73 kts | 24° |
| 2026-04-26 14:18 | 32.22232 | -80.69866 | 24 ft | 62 kts | 30° |
| 2026-04-26 14:18 | 32.22510 | -80.69706 | 27 ft | 33 kts | 25° |
| 2026-04-26 14:19 | 32.22717 | -80.69586 | 24 ft | 35 kts | 26° |
| 2026-04-26 14:19 | 32.22874 | -80.69494 | 22 ft | 15 kts | 25° |
| 2026-04-26 14:19 | 32.22948 | -80.69451 | 20 ft | 10 kts | 47° |
| 2026-04-26 14:19 | 32.22937 | -80.69387 | 20 ft | 12 kts | 114° |
| 2026-04-26 14:20 | 32.22880 | -80.69385 | 21 ft | 10 kts | 209° |
| 2026-04-26 14:20 | 32.22818 | -80.69421 | 24 ft | 10 kts | 204° |
| 2026-04-26 14:20 | 32.22743 | -80.69464 | 25 ft | 16 kts | 206° |
| 2026-04-26 14:20 | 32.22625 | -80.69532 | 26 ft | 19 kts | 205° |
| 2026-04-26 14:21 | 32.22513 | -80.69599 | 27 ft | 17 kts | 206° |
| 2026-04-26 14:21 | 32.22418 | -80.69651 | 25 ft | 13 kts | 206° |
| 2026-04-26 14:21 | 32.22346 | -80.69693 | 23 ft | 10 kts | 204° |
| 2026-04-26 14:21 | 32.22289 | -80.69725 | 23 ft | 8 kts | 206° |
| 2026-04-26 14:22 | 32.22244 | -80.69750 | 22 ft | 7 kts | 206° |
| 2026-04-26 14:22 | 32.22214 | -80.69735 | 22 ft | 0 kts | 112° |
| 2026-04-26 14:22 | 32.22213 | -80.69733 | 22 ft | 0 kts | 114° |
| 2026-04-26 14:22 | 32.22213 | -80.69731 | 22 ft | 0 kts | 115° |